BLUE7 KTYQ-KORL
Flight info
| Callsign | BLUE7 |
|---|---|
| Flight time | 1h 40m |
| Altitude | 41000 |
| Route | DAWNN1 DAWNN LVT HCH THRSR MJKAL JAFAR3 |
| Aircraft | C750/M-VGDW/C |
Departure
| Time | 2026-05-05 00:05 |
|---|---|
| Airport | Indianapolis Executive Airport (KTYQ) |
Arrival
| Time | 2026-05-05 01:45 |
|---|---|
| Airport | Orlando Executive Airport (KORL) |
| Time | Latitude | Longitude | Altitude | Speed | Heading |
|---|---|---|---|---|---|
| 2026-05-04 23:53 | 40.03962 | -86.25398 | 923 ft | 0 kts | 180° |
| 2026-05-05 00:03 | 40.03953 | -86.25397 | 923 ft | 5 kts | 174° |
| 2026-05-05 00:03 | 40.03873 | -86.25396 | 923 ft | 17 kts | 181° |
| 2026-05-05 00:03 | 40.03807 | -86.25341 | 923 ft | 10 kts | 78° |
| 2026-05-05 00:04 | 40.03816 | -86.25191 | 921 ft | 21 kts | 101° |
| 2026-05-05 00:04 | 40.03764 | -86.25150 | 920 ft | 21 kts | 176° |
| 2026-05-05 00:04 | 40.03046 | -86.25156 | 921 ft | 129 kts | 176° |
| 2026-05-05 00:04 | 40.02037 | -86.24952 | 1441 ft | 161 kts | 176° |
| 2026-05-05 00:05 | 40.01241 | -86.24797 | 1888 ft | 186 kts | 179° |
| 2026-05-05 00:05 | 39.99936 | -86.24598 | 3071 ft | 198 kts | 180° |
| 2026-05-05 00:05 | 39.98169 | -86.24323 | 4735 ft | 204 kts | 184° |
| 2026-05-05 00:05 | 39.96748 | -86.24434 | 5733 ft | 214 kts | 197° |
| 2026-05-05 00:06 | 39.95381 | -86.24728 | 7304 ft | 200 kts | 195° |
| 2026-05-05 00:06 | 39.94009 | -86.24792 | 8395 ft | 212 kts | 186° |
| 2026-05-05 00:06 | 39.92425 | -86.24589 | 8972 ft | 244 kts | 184° |
| 2026-05-05 00:06 | 39.90794 | -86.24431 | 10355 ft | 232 kts | 189° |
| 2026-05-05 00:07 | 39.89237 | -86.24545 | 11227 ft | 242 kts | 194° |
| 2026-05-05 00:07 | 39.87207 | -86.24829 | 9081 ft | 349 kts | 191° |
| 2026-05-05 00:07 | 39.84959 | -86.25433 | 9788 ft | 313 kts | 202° |
| 2026-05-05 00:07 | 39.82783 | -86.26099 | 8244 ft | 367 kts | 188° |
| 2026-05-05 00:08 | 39.80407 | -86.25610 | 9039 ft | 338 kts | 173° |
| 2026-05-05 00:08 | 39.78144 | -86.25288 | 10492 ft | 323 kts | 186° |
| 2026-05-05 00:08 | 39.75947 | -86.25250 | 11933 ft | 318 kts | 188° |
| 2026-05-05 00:08 | 39.73765 | -86.25334 | 13046 ft | 322 kts | 188° |
| 2026-05-05 00:09 | 39.71505 | -86.25410 | 14071 ft | 329 kts | 188° |
| 2026-05-05 00:09 | 39.69199 | -86.25507 | 15061 ft | 336 kts | 187° |
| 2026-05-05 00:09 | 39.66855 | -86.25603 | 16046 ft | 341 kts | 187° |
| 2026-05-05 00:09 | 39.64453 | -86.25693 | 16980 ft | 348 kts | 187° |
| 2026-05-05 00:10 | 39.62046 | -86.25793 | 17874 ft | 354 kts | 186° |
| 2026-05-05 00:10 | 39.59533 | -86.25890 | 18825 ft | 359 kts | 187° |
| 2026-05-05 00:10 | 39.57056 | -86.25987 | 19747 ft | 362 kts | 187° |
| 2026-05-05 00:10 | 39.54518 | -86.26090 | 20596 ft | 368 kts | 187° |
| 2026-05-05 00:11 | 39.52809 | -86.26160 | 21169 ft | 371 kts | 187° |
| 2026-05-05 00:11 | 39.50205 | -86.26263 | 22043 ft | 374 kts | 187° |
| 2026-05-05 00:11 | 39.46758 | -86.26399 | 23157 ft | 379 kts | 187° |
| 2026-05-05 00:11 | 39.44112 | -86.26503 | 23946 ft | 383 kts | 187° |
| 2026-05-05 00:12 | 39.41452 | -86.26610 | 24673 ft | 388 kts | 187° |
| 2026-05-05 00:12 | 39.38723 | -86.26717 | 25439 ft | 391 kts | 187° |
| 2026-05-05 00:12 | 39.36013 | -86.26826 | 26122 ft | 395 kts | 188° |
| 2026-05-05 00:12 | 39.33271 | -86.26935 | 26789 ft | 400 kts | 188° |
| 2026-05-05 00:13 | 39.30475 | -86.27043 | 27468 ft | 403 kts | 188° |
| 2026-05-05 00:13 | 39.27621 | -86.27160 | 28113 ft | 407 kts | 188° |
| 2026-05-05 00:13 | 39.24795 | -86.27270 | 28729 ft | 411 kts | 188° |
| 2026-05-05 00:13 | 39.21894 | -86.27383 | 29328 ft | 416 kts | 188° |
| 2026-05-05 00:14 | 39.19963 | -86.27460 | 29680 ft | 419 kts | 188° |
| 2026-05-05 00:14 | 39.16063 | -86.27612 | 30413 ft | 425 kts | 188° |
| 2026-05-05 00:14 | 39.13093 | -86.27734 | 30962 ft | 428 kts | 188° |
| 2026-05-05 00:14 | 39.10110 | -86.27856 | 31413 ft | 434 kts | 188° |
| 2026-05-05 00:15 | 39.08107 | -86.27936 | 31751 ft | 436 kts | 188° |
| 2026-05-05 00:15 | 39.04042 | -86.28062 | 32364 ft | 444 kts | 185° |
| 2026-05-05 00:15 | 39.01965 | -86.27878 | 32680 ft | 450 kts | 180° |
| 2026-05-05 00:15 | 38.97786 | -86.27391 | 33251 ft | 455 kts | 180° |
| 2026-05-05 00:16 | 38.94647 | -86.27040 | 33700 ft | 459 kts | 180° |
| 2026-05-05 00:16 | 38.91407 | -86.26679 | 34083 ft | 464 kts | 180° |
| 2026-05-05 00:16 | 38.89263 | -86.26442 | 34422 ft | 464 kts | 180° |
| 2026-05-05 00:16 | 38.84979 | -86.25965 | 35125 ft | 463 kts | 180° |
| 2026-05-05 00:17 | 38.81786 | -86.25610 | 35692 ft | 461 kts | 180° |
| 2026-05-05 00:17 | 38.78581 | -86.25256 | 36200 ft | 460 kts | 180° |
| 2026-05-05 00:17 | 38.75414 | -86.24910 | 36762 ft | 461 kts | 180° |
| 2026-05-05 00:17 | 38.72197 | -86.24555 | 37424 ft | 459 kts | 180° |
| 2026-05-05 00:18 | 38.69044 | -86.24209 | 38028 ft | 459 kts | 180° |
| 2026-05-05 00:18 | 38.66889 | -86.23968 | 38447 ft | 458 kts | 180° |
| 2026-05-05 00:18 | 38.62667 | -86.23508 | 39177 ft | 458 kts | 180° |
| 2026-05-05 00:18 | 38.59514 | -86.23106 | 39698 ft | 460 kts | 174° |
| 2026-05-05 00:19 | 38.56468 | -86.21719 | 39963 ft | 475 kts | 153° |
| 2026-05-05 00:19 | 38.53882 | -86.19037 | 40288 ft | 483 kts | 133° |
| 2026-05-05 00:19 | 38.51725 | -86.15743 | 40639 ft | 483 kts | 133° |
| 2026-05-05 00:19 | 38.49500 | -86.12541 | 40783 ft | 488 kts | 134° |
| 2026-05-05 00:20 | 38.47203 | -86.09289 | 40802 ft | 496 kts | 134° |
| 2026-05-05 00:20 | 38.42492 | -86.02655 | 40820 ft | 513 kts | 134° |
| 2026-05-05 00:21 | 38.37617 | -85.95806 | 40831 ft | 530 kts | 134° |
| 2026-05-05 00:21 | 38.32607 | -85.88785 | 40825 ft | 546 kts | 134° |
| 2026-05-05 00:22 | 38.27446 | -85.81561 | 40831 ft | 555 kts | 134° |
| 2026-05-05 00:22 | 38.22207 | -85.74249 | 40830 ft | 558 kts | 134° |
| 2026-05-05 00:23 | 38.16995 | -85.66994 | 40836 ft | 556 kts | 134° |
| 2026-05-05 00:23 | 38.11680 | -85.59926 | 40801 ft | 552 kts | 144° |
| 2026-05-05 00:23 | 38.08380 | -85.57561 | 40896 ft | 537 kts | 162° |
| 2026-05-05 00:24 | 38.04812 | -85.56270 | 40865 ft | 533 kts | 171° |
| 2026-05-05 00:24 | 37.97537 | -85.54219 | 40855 ft | 535 kts | 172° |
| 2026-05-05 00:25 | 37.90228 | -85.52207 | 40842 ft | 535 kts | 172° |
| 2026-05-05 00:25 | 37.82932 | -85.50207 | 40853 ft | 536 kts | 172° |
| 2026-05-05 00:26 | 37.75645 | -85.48215 | 40848 ft | 537 kts | 172° |
| 2026-05-05 00:26 | 37.68311 | -85.46213 | 40853 ft | 537 kts | 172° |
| 2026-05-05 00:27 | 37.61012 | -85.44218 | 40858 ft | 537 kts | 172° |
| 2026-05-05 00:27 | 37.53710 | -85.42232 | 40871 ft | 538 kts | 172° |
| 2026-05-05 00:28 | 37.46378 | -85.40241 | 40874 ft | 538 kts | 172° |
| 2026-05-05 00:28 | 37.39081 | -85.38265 | 40894 ft | 539 kts | 172° |
| 2026-05-05 00:29 | 37.31767 | -85.36285 | 40903 ft | 539 kts | 172° |
| 2026-05-05 00:29 | 37.24395 | -85.34296 | 40892 ft | 540 kts | 173° |
| 2026-05-05 00:30 | 37.17053 | -85.32316 | 40881 ft | 540 kts | 173° |
| 2026-05-05 00:30 | 37.09685 | -85.30336 | 40888 ft | 540 kts | 173° |
| 2026-05-05 00:31 | 37.02349 | -85.28366 | 40888 ft | 540 kts | 173° |
| 2026-05-05 00:31 | 36.94997 | -85.26399 | 40901 ft | 540 kts | 173° |
| 2026-05-05 00:32 | 36.87608 | -85.24424 | 40899 ft | 540 kts | 173° |
| 2026-05-05 00:32 | 36.80258 | -85.22460 | 40913 ft | 541 kts | 173° |
| 2026-05-05 00:33 | 36.72884 | -85.20498 | 40912 ft | 542 kts | 173° |
| 2026-05-05 00:33 | 36.65506 | -85.18538 | 40929 ft | 542 kts | 173° |
| 2026-05-05 00:34 | 36.58116 | -85.16560 | 40930 ft | 544 kts | 171° |
| 2026-05-05 00:34 | 36.50756 | -85.14764 | 40986 ft | 538 kts | 177° |
| 2026-05-05 00:35 | 36.43348 | -85.13097 | 40946 ft | 542 kts | 175° |
| 2026-05-05 00:35 | 36.35900 | -85.11346 | 40959 ft | 543 kts | 174° |
| 2026-05-05 00:36 | 36.28449 | -85.09595 | 40974 ft | 543 kts | 174° |
| 2026-05-05 00:36 | 36.21008 | -85.07849 | 40982 ft | 543 kts | 175° |
| 2026-05-05 00:37 | 36.13561 | -85.06107 | 40988 ft | 544 kts | 175° |
| 2026-05-05 00:37 | 36.06116 | -85.04366 | 41000 ft | 545 kts | 175° |
| 2026-05-05 00:38 | 35.98648 | -85.02625 | 41001 ft | 545 kts | 175° |
| 2026-05-05 00:38 | 35.91154 | -85.00882 | 41003 ft | 546 kts | 175° |
| 2026-05-05 00:39 | 35.83670 | -84.99146 | 40993 ft | 547 kts | 175° |
| 2026-05-05 00:39 | 35.76163 | -84.97569 | 40967 ft | 542 kts | 181° |
| 2026-05-05 00:39 | 35.72414 | -84.96738 | 40928 ft | 553 kts | 168° |
| 2026-05-05 00:40 | 35.70018 | -84.95856 | 41041 ft | 548 kts | 171° |
| 2026-05-05 00:40 | 35.61287 | -84.93504 | 40973 ft | 548 kts | 174° |
| 2026-05-05 00:41 | 35.53846 | -84.91580 | 40982 ft | 549 kts | 174° |
| 2026-05-05 00:41 | 35.47572 | -84.89965 | 40988 ft | 549 kts | 174° |
| 2026-05-05 00:42 | 35.38858 | -84.87727 | 40977 ft | 551 kts | 174° |
| 2026-05-05 00:42 | 35.31345 | -84.85799 | 40987 ft | 551 kts | 174° |
| 2026-05-05 00:43 | 35.23798 | -84.83868 | 40985 ft | 552 kts | 174° |
| 2026-05-05 00:43 | 35.20150 | -84.82951 | 42493 ft | 514 kts | 173° |
| 2026-05-05 00:43 | 35.16722 | -84.82110 | 43145 ft | 505 kts | 175° |
| 2026-05-05 00:43 | 35.13125 | -84.81182 | 41428 ft | 548 kts | 173° |
| 2026-05-05 00:44 | 35.09387 | -84.80204 | 41146 ft | 553 kts | 173° |
| 2026-05-05 00:44 | 35.05618 | -84.79230 | 40998 ft | 554 kts | 174° |
| 2026-05-05 00:44 | 35.01787 | -84.78256 | 40997 ft | 554 kts | 174° |
| 2026-05-05 00:45 | 34.94235 | -84.76334 | 40987 ft | 553 kts | 174° |
| 2026-05-05 00:45 | 34.86645 | -84.74410 | 40992 ft | 554 kts | 174° |
| 2026-05-05 00:46 | 34.79088 | -84.72497 | 41001 ft | 555 kts | 174° |
| 2026-05-05 00:46 | 34.71510 | -84.70579 | 41009 ft | 555 kts | 174° |
| 2026-05-05 00:47 | 34.63920 | -84.68669 | 41010 ft | 556 kts | 174° |
| 2026-05-05 00:47 | 34.56310 | -84.66753 | 41005 ft | 556 kts | 174° |
| 2026-05-05 00:48 | 34.48699 | -84.64830 | 41013 ft | 557 kts | 174° |
| 2026-05-05 00:48 | 34.42374 | -84.63248 | 41020 ft | 557 kts | 174° |
| 2026-05-05 00:49 | 34.33432 | -84.61008 | 41035 ft | 559 kts | 174° |
| 2026-05-05 00:49 | 34.25785 | -84.59094 | 41042 ft | 560 kts | 174° |
| 2026-05-05 00:50 | 34.19451 | -84.57515 | 41033 ft | 559 kts | 174° |
| 2026-05-05 00:50 | 34.10493 | -84.55284 | 41041 ft | 559 kts | 174° |
| 2026-05-05 00:51 | 34.02837 | -84.53384 | 41037 ft | 560 kts | 174° |
| 2026-05-05 00:51 | 33.95202 | -84.51489 | 41042 ft | 561 kts | 174° |
| 2026-05-05 00:52 | 33.87458 | -84.49573 | 41038 ft | 562 kts | 174° |
| 2026-05-05 00:52 | 33.79807 | -84.47682 | 41032 ft | 562 kts | 175° |
| 2026-05-05 00:53 | 33.72099 | -84.45779 | 41043 ft | 562 kts | 175° |
| 2026-05-05 00:53 | 33.65663 | -84.44198 | 41040 ft | 563 kts | 175° |
| 2026-05-05 00:53 | 33.60600 | -84.42438 | 41019 ft | 574 kts | 163° |
| 2026-05-05 00:54 | 33.58155 | -84.41215 | 41065 ft | 575 kts | 163° |
| 2026-05-05 00:54 | 33.50679 | -84.37552 | 41041 ft | 576 kts | 163° |
| 2026-05-05 00:55 | 33.41989 | -84.33326 | 41047 ft | 575 kts | 164° |
| 2026-05-05 00:55 | 33.34537 | -84.29702 | 41032 ft | 576 kts | 163° |
| 2026-05-05 00:56 | 33.27076 | -84.26092 | 41040 ft | 576 kts | 164° |
| 2026-05-05 00:56 | 33.19663 | -84.22501 | 41034 ft | 575 kts | 163° |
| 2026-05-05 00:57 | 33.12209 | -84.18903 | 41037 ft | 577 kts | 163° |
| 2026-05-05 00:57 | 33.04744 | -84.15300 | 41036 ft | 576 kts | 165° |
| 2026-05-05 00:58 | 32.97268 | -84.11706 | 41048 ft | 578 kts | 164° |
| 2026-05-05 00:58 | 32.89777 | -84.08106 | 41049 ft | 579 kts | 163° |
| 2026-05-05 00:59 | 32.82252 | -84.04497 | 41038 ft | 578 kts | 164° |
| 2026-05-05 00:59 | 32.74764 | -84.00920 | 41023 ft | 579 kts | 164° |
| 2026-05-05 01:00 | 32.67260 | -83.97333 | 41034 ft | 578 kts | 164° |
| 2026-05-05 01:00 | 32.59752 | -83.93752 | 41038 ft | 579 kts | 164° |
| 2026-05-05 01:01 | 32.52222 | -83.90169 | 41042 ft | 578 kts | 164° |
| 2026-05-05 01:01 | 32.44751 | -83.86620 | 41057 ft | 578 kts | 164° |
| 2026-05-05 01:02 | 32.37234 | -83.83055 | 41047 ft | 579 kts | 164° |
| 2026-05-05 01:02 | 32.29712 | -83.79491 | 41062 ft | 578 kts | 164° |
| 2026-05-05 01:03 | 32.22168 | -83.75922 | 41049 ft | 581 kts | 163° |
| 2026-05-05 01:03 | 32.14683 | -83.72388 | 41046 ft | 581 kts | 164° |
| 2026-05-05 01:04 | 32.07103 | -83.68822 | 41050 ft | 580 kts | 164° |
| 2026-05-05 01:04 | 31.95809 | -83.63513 | 41045 ft | 580 kts | 164° |
| 2026-05-05 01:05 | 31.88235 | -83.59968 | 41041 ft | 581 kts | 163° |
| 2026-05-05 01:05 | 31.80692 | -83.56431 | 41033 ft | 579 kts | 164° |
| 2026-05-05 01:06 | 31.73212 | -83.52939 | 41043 ft | 578 kts | 164° |
| 2026-05-05 01:06 | 31.66967 | -83.50028 | 41048 ft | 578 kts | 163° |
| 2026-05-05 01:07 | 31.59425 | -83.46516 | 41052 ft | 577 kts | 164° |
| 2026-05-05 01:07 | 31.50689 | -83.42451 | 41044 ft | 577 kts | 164° |
| 2026-05-05 01:08 | 31.44440 | -83.39556 | 41043 ft | 576 kts | 164° |
| 2026-05-05 01:08 | 31.35689 | -83.35743 | 41041 ft | 575 kts | 163° |
| 2026-05-05 01:09 | 31.32156 | -83.33283 | 41062 ft | 586 kts | 146° |
| 2026-05-05 01:09 | 31.28924 | -83.30441 | 40997 ft | 585 kts | 149° |
| 2026-05-05 01:09 | 31.22163 | -83.25119 | 41033 ft | 584 kts | 150° |
| 2026-05-05 01:10 | 31.15406 | -83.19862 | 41026 ft | 583 kts | 151° |
| 2026-05-05 01:10 | 31.08651 | -83.14630 | 41031 ft | 582 kts | 150° |
| 2026-05-05 01:11 | 31.01860 | -83.09377 | 41035 ft | 582 kts | 150° |
| 2026-05-05 01:11 | 30.95096 | -83.04150 | 41042 ft | 582 kts | 151° |
| 2026-05-05 01:12 | 30.88299 | -82.98906 | 41031 ft | 581 kts | 151° |
| 2026-05-05 01:12 | 30.82673 | -82.94571 | 41032 ft | 580 kts | 151° |
| 2026-05-05 01:13 | 30.74797 | -82.88519 | 41035 ft | 579 kts | 151° |
| 2026-05-05 01:13 | 30.68057 | -82.83354 | 41039 ft | 579 kts | 151° |
| 2026-05-05 01:14 | 30.61320 | -82.78194 | 41039 ft | 578 kts | 151° |
| 2026-05-05 01:14 | 30.54621 | -82.73069 | 41039 ft | 578 kts | 151° |
| 2026-05-05 01:15 | 30.49007 | -82.68778 | 41039 ft | 577 kts | 151° |
| 2026-05-05 01:15 | 30.41155 | -82.62791 | 41046 ft | 576 kts | 152° |
| 2026-05-05 01:16 | 30.34412 | -82.57667 | 41048 ft | 576 kts | 151° |
| 2026-05-05 01:16 | 30.27753 | -82.52609 | 41057 ft | 576 kts | 151° |
| 2026-05-05 01:17 | 30.22163 | -82.48367 | 41061 ft | 575 kts | 151° |
| 2026-05-05 01:17 | 30.14325 | -82.42439 | 41058 ft | 575 kts | 152° |
| 2026-05-05 01:18 | 30.10840 | -82.40365 | 40997 ft | 559 kts | 167° |
| 2026-05-05 01:18 | 30.07130 | -82.39227 | 41099 ft | 552 kts | 173° |
| 2026-05-05 01:18 | 29.99658 | -82.37163 | 41039 ft | 552 kts | 173° |
| 2026-05-05 01:19 | 29.95881 | -82.36112 | 40842 ft | 556 kts | 173° |
| 2026-05-05 01:19 | 29.92069 | -82.35065 | 39443 ft | 560 kts | 173° |
| 2026-05-05 01:19 | 29.88324 | -82.34029 | 38303 ft | 551 kts | 173° |
| 2026-05-05 01:19 | 29.84630 | -82.33011 | 37221 ft | 548 kts | 173° |
| 2026-05-05 01:20 | 29.80917 | -82.31986 | 36134 ft | 545 kts | 173° |
| 2026-05-05 01:20 | 29.77256 | -82.30986 | 35056 ft | 543 kts | 174° |
| 2026-05-05 01:20 | 29.73583 | -82.30085 | 33969 ft | 540 kts | 175° |
| 2026-05-05 01:20 | 29.69908 | -82.29177 | 32929 ft | 538 kts | 175° |
| 2026-05-05 01:21 | 29.67482 | -82.28584 | 32251 ft | 536 kts | 175° |
| 2026-05-05 01:21 | 29.63860 | -82.27690 | 31251 ft | 532 kts | 175° |
| 2026-05-05 01:21 | 29.59056 | -82.26511 | 29902 ft | 524 kts | 175° |
| 2026-05-05 01:21 | 29.55544 | -82.25649 | 28879 ft | 517 kts | 175° |
| 2026-05-05 01:22 | 29.53208 | -82.25076 | 28204 ft | 513 kts | 175° |
| 2026-05-05 01:22 | 29.48635 | -82.23953 | 26789 ft | 496 kts | 174° |
| 2026-05-05 01:22 | 29.45289 | -82.23135 | 25760 ft | 483 kts | 174° |
| 2026-05-05 01:22 | 29.43105 | -82.22598 | 25146 ft | 480 kts | 174° |
| 2026-05-05 01:23 | 29.38793 | -82.21546 | 23658 ft | 480 kts | 173° |
| 2026-05-05 01:23 | 29.36596 | -82.21012 | 23039 ft | 475 kts | 173° |
| 2026-05-05 01:23 | 29.32359 | -82.19970 | 21977 ft | 464 kts | 173° |
| 2026-05-05 01:23 | 29.29228 | -82.19162 | 21151 ft | 460 kts | 169° |
| 2026-05-05 01:24 | 29.26235 | -82.17820 | 20344 ft | 457 kts | 160° |
| 2026-05-05 01:24 | 29.24319 | -82.16899 | 19850 ft | 454 kts | 162° |
| 2026-05-05 01:24 | 29.21360 | -82.15488 | 19084 ft | 458 kts | 161° |
| 2026-05-05 01:24 | 29.17450 | -82.13634 | 18035 ft | 460 kts | 160° |
| 2026-05-05 01:25 | 29.14489 | -82.12221 | 17247 ft | 460 kts | 161° |
| 2026-05-05 01:25 | 29.11539 | -82.10827 | 16496 ft | 460 kts | 160° |
| 2026-05-05 01:25 | 29.09571 | -82.09888 | 16012 ft | 459 kts | 160° |
| 2026-05-05 01:25 | 29.05703 | -82.08053 | 14986 ft | 437 kts | 159° |
| 2026-05-05 01:26 | 29.02956 | -82.06735 | 14189 ft | 420 kts | 159° |
| 2026-05-05 01:26 | 29.00311 | -82.05478 | 13408 ft | 406 kts | 157° |
| 2026-05-05 01:26 | 28.98662 | -82.04471 | 12843 ft | 400 kts | 146° |
| 2026-05-05 01:26 | 28.96054 | -82.01577 | 11830 ft | 387 kts | 135° |
| 2026-05-05 01:27 | 28.94195 | -81.99424 | 11103 ft | 374 kts | 135° |
| 2026-05-05 01:27 | 28.92448 | -81.97375 | 10963 ft | 341 kts | 135° |
| 2026-05-05 01:27 | 28.91396 | -81.96126 | 10934 ft | 325 kts | 135° |
| 2026-05-05 01:27 | 28.89347 | -81.93713 | 10956 ft | 313 kts | 135° |
| 2026-05-05 01:28 | 28.88325 | -81.92511 | 10913 ft | 313 kts | 135° |
| 2026-05-05 01:28 | 28.86739 | -81.90821 | 10252 ft | 307 kts | 141° |
| 2026-05-05 01:28 | 28.84691 | -81.88772 | 9465 ft | 287 kts | 140° |
| 2026-05-05 01:28 | 28.83210 | -81.87290 | 8693 ft | 281 kts | 140° |
| 2026-05-05 01:29 | 28.82244 | -81.86326 | 8132 ft | 279 kts | 142° |
| 2026-05-05 01:29 | 28.80545 | -81.85399 | 7278 ft | 271 kts | 172° |
| 2026-05-05 01:29 | 28.78691 | -81.85213 | 6476 ft | 266 kts | 177° |
| 2026-05-05 01:29 | 28.76325 | -81.85072 | 5966 ft | 238 kts | 178° |
| 2026-05-05 01:30 | 28.74719 | -81.84989 | 5981 ft | 228 kts | 177° |
| 2026-05-05 01:30 | 28.73119 | -81.84910 | 5843 ft | 225 kts | 177° |
| 2026-05-05 01:30 | 28.71605 | -81.84837 | 5472 ft | 218 kts | 177° |
| 2026-05-05 01:30 | 28.70093 | -81.84792 | 5026 ft | 215 kts | 177° |
| 2026-05-05 01:31 | 28.68598 | -81.84777 | 4600 ft | 217 kts | 177° |
| 2026-05-05 01:31 | 28.67559 | -81.84775 | 4153 ft | 227 kts | 177° |
| 2026-05-05 01:31 | 28.65434 | -81.84798 | 3537 ft | 232 kts | 177° |
| 2026-05-05 01:31 | 28.63825 | -81.84844 | 3164 ft | 230 kts | 177° |
| 2026-05-05 01:32 | 28.62251 | -81.84904 | 2972 ft | 219 kts | 178° |
| 2026-05-05 01:32 | 28.61245 | -81.84943 | 2951 ft | 215 kts | 175° |
| 2026-05-05 01:32 | 28.59823 | -81.84589 | 2973 ft | 206 kts | 153° |
| 2026-05-05 01:32 | 28.58066 | -81.83716 | 2952 ft | 205 kts | 152° |
| 2026-05-05 01:33 | 28.57201 | -81.83284 | 2953 ft | 204 kts | 152° |
| 2026-05-05 01:33 | 28.55887 | -81.82622 | 2949 ft | 203 kts | 152° |
| 2026-05-05 01:33 | 28.54705 | -81.81818 | 2960 ft | 198 kts | 134° |
| 2026-05-05 01:33 | 28.53419 | -81.80418 | 2948 ft | 181 kts | 133° |
| 2026-05-05 01:34 | 28.52540 | -81.79465 | 2930 ft | 166 kts | 133° |
| 2026-05-05 01:34 | 28.51996 | -81.78881 | 2925 ft | 155 kts | 132° |
| 2026-05-05 01:34 | 28.51243 | -81.78084 | 2918 ft | 143 kts | 132° |
| 2026-05-05 01:34 | 28.50287 | -81.77087 | 2947 ft | 136 kts | 133° |
| 2026-05-05 01:35 | 28.49585 | -81.76362 | 2961 ft | 138 kts | 133° |
| 2026-05-05 01:35 | 28.48841 | -81.75581 | 2996 ft | 154 kts | 133° |
| 2026-05-05 01:35 | 28.48018 | -81.74704 | 3023 ft | 172 kts | 132° |
| 2026-05-05 01:35 | 28.47330 | -81.73542 | 3004 ft | 184 kts | 99° |
| 2026-05-05 01:36 | 28.47389 | -81.72079 | 3003 ft | 187 kts | 82° |
| 2026-05-05 01:36 | 28.47577 | -81.70600 | 2975 ft | 190 kts | 84° |
| 2026-05-05 01:36 | 28.47597 | -81.69106 | 2964 ft | 191 kts | 92° |
| 2026-05-05 01:36 | 28.47557 | -81.68101 | 2966 ft | 192 kts | 92° |
| 2026-05-05 01:37 | 28.47478 | -81.66078 | 2971 ft | 189 kts | 92° |
| 2026-05-05 01:37 | 28.47419 | -81.64603 | 2958 ft | 182 kts | 93° |
| 2026-05-05 01:37 | 28.47339 | -81.63201 | 2958 ft | 176 kts | 92° |
| 2026-05-05 01:37 | 28.47287 | -81.61817 | 2965 ft | 172 kts | 92° |
| 2026-05-05 01:38 | 28.47252 | -81.60913 | 2965 ft | 170 kts | 92° |
| 2026-05-05 01:38 | 28.47178 | -81.59136 | 2966 ft | 167 kts | 93° |
| 2026-05-05 01:38 | 28.47086 | -81.58279 | 2965 ft | 166 kts | 99° |
| 2026-05-05 01:38 | 28.46823 | -81.56572 | 2967 ft | 163 kts | 98° |
| 2026-05-05 01:39 | 28.46630 | -81.55316 | 2964 ft | 161 kts | 98° |
| 2026-05-05 01:39 | 28.46633 | -81.54047 | 2978 ft | 166 kts | 72° |
| 2026-05-05 01:39 | 28.46949 | -81.53228 | 3017 ft | 171 kts | 67° |
| 2026-05-05 01:39 | 28.47555 | -81.51607 | 2996 ft | 162 kts | 69° |
| 2026-05-05 01:40 | 28.47844 | -81.50836 | 3028 ft | 150 kts | 68° |
| 2026-05-05 01:40 | 28.48371 | -81.49446 | 2875 ft | 140 kts | 69° |
| 2026-05-05 01:40 | 28.48743 | -81.48467 | 2691 ft | 130 kts | 69° |
| 2026-05-05 01:40 | 28.49095 | -81.47546 | 2533 ft | 123 kts | 69° |
| 2026-05-05 01:41 | 28.49429 | -81.46668 | 2380 ft | 118 kts | 70° |
| 2026-05-05 01:41 | 28.49647 | -81.46097 | 2295 ft | 118 kts | 70° |
| 2026-05-05 01:41 | 28.49970 | -81.45252 | 2146 ft | 114 kts | 69° |
| 2026-05-05 01:41 | 28.50378 | -81.44175 | 1956 ft | 111 kts | 70° |
| 2026-05-05 01:42 | 28.50585 | -81.43635 | 1865 ft | 112 kts | 69° |
| 2026-05-05 01:42 | 28.50892 | -81.42828 | 1734 ft | 112 kts | 70° |
| 2026-05-05 01:42 | 28.51210 | -81.41992 | 1607 ft | 118 kts | 69° |
| 2026-05-05 01:42 | 28.51659 | -81.40813 | 1404 ft | 125 kts | 69° |
| 2026-05-05 01:43 | 28.52009 | -81.39899 | 1225 ft | 126 kts | 69° |
| 2026-05-05 01:43 | 28.52355 | -81.38992 | 1048 ft | 123 kts | 69° |
| 2026-05-05 01:43 | 28.52699 | -81.38083 | 892 ft | 126 kts | 68° |
| 2026-05-05 01:43 | 28.53050 | -81.37166 | 731 ft | 127 kts | 68° |
| 2026-05-05 01:44 | 28.53282 | -81.36562 | 609 ft | 120 kts | 68° |
| 2026-05-05 01:44 | 28.53705 | -81.35472 | 368 ft | 110 kts | 65° |
| 2026-05-05 01:44 | 28.54079 | -81.34647 | 316 ft | 120 kts | 63° |
| 2026-05-05 01:44 | 28.54320 | -81.33749 | 190 ft | 117 kts | 73° |
| 2026-05-05 01:45 | 28.54665 | -81.32956 | 110 ft | 82 kts | 62° |
| 2026-05-05 01:45 | 28.54809 | -81.32748 | 111 ft | 26 kts | 38° |